sensor_id;sensor_type;location;lat;lon;timestamp;temperature;humidity
3792;DHT22;1911;53.768;11.474;2022-09-17T00:00:19;11.20;99.90
3792;DHT22;1911;53.768;11.474;2022-09-17T00:02:49;11.20;99.90
3792;DHT22;1911;53.768;11.474;2022-09-17T00:05:16;11.20;99.90
3792;DHT22;1911;53.768;11.474;2022-09-17T00:07:41;11.20;99.90
3792;DHT22;1911;53.768;11.474;2022-09-17T00:10:07;11.20;99.90
3792;DHT22;1911;53.768;11.474;2022-09-17T00:12:33;11.20;99.90
3792;DHT22;1911;53.768;11.474;2022-09-17T00:14:58;11.30;99.90
3792;DHT22;1911;53.768;11.474;2022-09-17T00:17:24;11.30;99.90
3792;DHT22;1911;53.768;11.474;2022-09-17T00:19:49;11.30;99.90
3792;DHT22;1911;53.768;11.474;2022-09-17T00:22:15;11.30;99.90
3792;DHT22;1911;53.768;11.474;2022-09-17T00:24:41;11.30;99.90
3792;DHT22;1911;53.768;11.474;2022-09-17T00:27:06;11.30;99.90
3792;DHT22;1911;53.768;11.474;2022-09-17T00:29:32;11.30;99.90
3792;DHT22;1911;53.768;11.474;2022-09-17T00:31:58;11.30;99.90
3792;DHT22;1911;53.768;11.474;2022-09-17T00:34:24;11.40;99.90
3792;DHT22;1911;53.768;11.474;2022-09-17T00:36:49;11.40;99.90
3792;DHT22;1911;53.768;11.474;2022-09-17T00:39:15;11.30;99.90
3792;DHT22;1911;53.768;11.474;2022-09-17T00:41:42;11.30;99.90
3792;DHT22;1911;53.768;11.474;2022-09-17T00:47:17;11.40;99.90
3792;DHT22;1911;53.768;11.474;2022-09-17T00:49:44;11.40;99.90
3792;DHT22;1911;53.768;11.474;2022-09-17T00:52:14;11.40;99.90
3792;DHT22;1911;53.768;11.474;2022-09-17T00:54:45;11.30;99.90
3792;DHT22;1911;53.768;11.474;2022-09-17T00:57:14;11.40;99.90
3792;DHT22;1911;53.768;11.474;2022-09-17T00:59:40;11.40;99.90
3792;DHT22;1911;53.768;11.474;2022-09-17T01:02:11;11.40;99.90
3792;DHT22;1911;53.768;11.474;2022-09-17T01:04:37;11.40;99.90
3792;DHT22;1911;53.768;11.474;2022-09-17T01:15:27;11.40;99.90
3792;DHT22;1911;53.768;11.474;2022-09-17T01:32:46;11.50;99.90
3792;DHT22;1911;53.768;11.474;2022-09-17T01:43:16;11.50;99.90
3792;DHT22;1911;53.768;11.474;2022-09-17T01:45:50;11.50;99.90
3792;DHT22;1911;53.768;11.474;2022-09-17T01:48:18;11.50;99.90
3792;DHT22;1911;53.768;11.474;2022-09-17T01:50:57;11.60;99.90
3792;DHT22;1911;53.768;11.474;2022-09-17T01:53:30;11.50;99.90
3792;DHT22;1911;53.768;11.474;2022-09-17T01:55:58;11.50;99.90
3792;DHT22;1911;53.768;11.474;2022-09-17T01:58:33;11.50;99.90
3792;DHT22;1911;53.768;11.474;2022-09-17T02:01:03;11.50;99.90
3792;DHT22;1911;53.768;11.474;2022-09-17T02:06:18;11.50;99.90
3792;DHT22;1911;53.768;11.474;2022-09-17T02:08:52;11.60;99.90
3792;DHT22;1911;53.768;11.474;2022-09-17T02:11:19;11.60;99.90
3792;DHT22;1911;53.768;11.474;2022-09-17T02:14:04;11.50;99.90
3792;DHT22;1911;53.768;11.474;2022-09-17T02:16:35;11.60;99.90
3792;DHT22;1911;53.768;11.474;2022-09-17T02:21:29;11.50;99.90
3792;DHT22;1911;53.768;11.474;2022-09-17T02:26:31;11.60;99.90
3792;DHT22;1911;53.768;11.474;2022-09-17T02:29:08;11.60;99.90
3792;DHT22;1911;53.768;11.474;2022-09-17T02:31:34;11.60;99.90
3792;DHT22;1911;53.768;11.474;2022-09-17T02:34:00;11.60;99.90
3792;DHT22;1911;53.768;11.474;2022-09-17T02:36:28;11.60;99.90
3792;DHT22;1911;53.768;11.474;2022-09-17T02:39:01;11.60;99.90
3792;DHT22;1911;53.768;11.474;2022-09-17T02:44:53;11.60;99.90
3792;DHT22;1911;53.768;11.474;2022-09-17T02:47:33;11.60;99.90
3792;DHT22;1911;53.768;11.474;2022-09-17T02:55:40;11.60;99.90
3792;DHT22;1911;53.768;11.474;2022-09-17T03:00:43;11.60;99.90
3792;DHT22;1911;53.768;11.474;2022-09-17T03:03:32;11.60;99.90
3792;DHT22;1911;53.768;11.474;2022-09-17T03:05:59;11.70;99.90
3792;DHT22;1911;53.768;11.474;2022-09-17T03:08:33;11.70;99.90
3792;DHT22;1911;53.768;11.474;2022-09-17T03:11:00;11.70;99.90
3792;DHT22;1911;53.768;11.474;2022-09-17T03:13:25;11.70;99.90
3792;DHT22;1911;53.768;11.474;2022-09-17T03:15:51;11.70;99.90
3792;DHT22;1911;53.768;11.474;2022-09-17T03:18:16;11.70;99.90
3792;DHT22;1911;53.768;11.474;2022-09-17T03:20:42;11.80;99.90
3792;DHT22;1911;53.768;11.474;2022-09-17T03:23:07;11.80;99.90
3792;DHT22;1911;53.768;11.474;2022-09-17T03:25:33;11.80;99.90
3792;DHT22;1911;53.768;11.474;2022-09-17T03:27:59;11.80;99.90
3792;DHT22;1911;53.768;11.474;2022-09-17T03:30:24;11.80;99.90
3792;DHT22;1911;53.768;11.474;2022-09-17T03:32:50;11.80;99.90
3792;DHT22;1911;53.768;11.474;2022-09-17T03:35:16;11.80;99.90
3792;DHT22;1911;53.768;11.474;2022-09-17T03:37:41;11.80;99.90
3792;DHT22;1911;53.768;11.474;2022-09-17T03:40:07;11.80;99.90
3792;DHT22;1911;53.768;11.474;2022-09-17T03:42:33;11.80;99.90
3792;DHT22;1911;53.768;11.474;2022-09-17T03:44:59;11.80;99.90
3792;DHT22;1911;53.768;11.474;2022-09-17T03:47:24;11.80;99.90
3792;DHT22;1911;53.768;11.474;2022-09-17T03:49:50;11.80;99.90
3792;DHT22;1911;53.768;11.474;2022-09-17T03:52:16;11.80;99.90
3792;DHT22;1911;53.768;11.474;2022-09-17T03:54:42;11.80;99.90
3792;DHT22;1911;53.768;11.474;2022-09-17T03:57:08;11.80;99.90
3792;DHT22;1911;53.768;11.474;2022-09-17T03:59:34;11.80;99.90
3792;DHT22;1911;53.768;11.474;2022-09-17T04:01:59;11.80;99.90
3792;DHT22;1911;53.768;11.474;2022-09-17T04:04:25;11.80;99.90
3792;DHT22;1911;53.768;11.474;2022-09-17T04:06:51;11.80;99.90
3792;DHT22;1911;53.768;11.474;2022-09-17T04:09:16;11.80;99.90
3792;DHT22;1911;53.768;11.474;2022-09-17T04:11:42;11.70;99.90
3792;DHT22;1911;53.768;11.474;2022-09-17T04:14:07;11.80;99.90
3792;DHT22;1911;53.768;11.474;2022-09-17T04:16:33;11.80;99.90
3792;DHT22;1911;53.768;11.474;2022-09-17T04:18:59;11.70;99.90
3792;DHT22;1911;53.768;11.474;2022-09-17T04:21:24;11.70;99.90
3792;DHT22;1911;53.768;11.474;2022-09-17T04:23:50;11.70;99.90
3792;DHT22;1911;53.768;11.474;2022-09-17T04:26:15;11.70;99.90
3792;DHT22;1911;53.768;11.474;2022-09-17T04:28:41;11.70;99.90
3792;DHT22;1911;53.768;11.474;2022-09-17T04:31:07;11.70;99.90
3792;DHT22;1911;53.768;11.474;2022-09-17T04:33:32;11.70;99.90
3792;DHT22;1911;53.768;11.474;2022-09-17T04:35:58;11.70;99.90
3792;DHT22;1911;53.768;11.474;2022-09-17T04:38:23;11.70;99.90
3792;DHT22;1911;53.768;11.474;2022-09-17T04:40:49;11.70;99.90
3792;DHT22;1911;53.768;11.474;2022-09-17T04:43:16;11.70;99.90
3792;DHT22;1911;53.768;11.474;2022-09-17T04:45:44;11.70;99.90
3792;DHT22;1911;53.768;11.474;2022-09-17T04:48:10;11.60;99.90
3792;DHT22;1911;53.768;11.474;2022-09-17T04:50:36;11.60;99.90
3792;DHT22;1911;53.768;11.474;2022-09-17T04:53:01;11.60;99.90
3792;DHT22;1911;53.768;11.474;2022-09-17T04:55:27;11.60;99.90
3792;DHT22;1911;53.768;11.474;2022-09-17T04:57:53;11.50;99.90
3792;DHT22;1911;53.768;11.474;2022-09-17T05:00:20;11.50;99.90
3792;DHT22;1911;53.768;11.474;2022-09-17T05:02:49;11.50;99.90
3792;DHT22;1911;53.768;11.474;2022-09-17T05:05:16;11.50;99.90
3792;DHT22;1911;53.768;11.474;2022-09-17T05:07:42;11.50;99.90
3792;DHT22;1911;53.768;11.474;2022-09-17T05:10:08;11.50;99.90
3792;DHT22;1911;53.768;11.474;2022-09-17T05:12:34;11.50;99.90
3792;DHT22;1911;53.768;11.474;2022-09-17T05:15:00;11.50;99.90
3792;DHT22;1911;53.768;11.474;2022-09-17T05:17:26;11.50;99.90
3792;DHT22;1911;53.768;11.474;2022-09-17T05:19:51;11.50;99.90
3792;DHT22;1911;53.768;11.474;2022-09-17T05:22:20;11.50;99.90
3792;DHT22;1911;53.768;11.474;2022-09-17T05:24:46;11.50;99.90
3792;DHT22;1911;53.768;11.474;2022-09-17T05:27:12;11.50;99.90
3792;DHT22;1911;53.768;11.474;2022-09-17T05:29:37;11.50;99.90
3792;DHT22;1911;53.768;11.474;2022-09-17T05:32:05;11.40;99.90
3792;DHT22;1911;53.768;11.474;2022-09-17T05:34:31;11.40;99.90
3792;DHT22;1911;53.768;11.474;2022-09-17T05:36:57;11.40;99.90
3792;DHT22;1911;53.768;11.474;2022-09-17T05:39:22;11.40;99.90
3792;DHT22;1911;53.768;11.474;2022-09-17T05:41:53;11.40;99.90
3792;DHT22;1911;53.768;11.474;2022-09-17T05:44:19;11.50;99.90
3792;DHT22;1911;53.768;11.474;2022-09-17T05:46:45;11.40;99.90
3792;DHT22;1911;53.768;11.474;2022-09-17T05:49:12;11.40;99.90
3792;DHT22;1911;53.768;11.474;2022-09-17T05:51:40;11.40;99.90
3792;DHT22;1911;53.768;11.474;2022-09-17T05:54:06;11.40;99.90
3792;DHT22;1911;53.768;11.474;2022-09-17T05:56:31;11.50;99.90
3792;DHT22;1911;53.768;11.474;2022-09-17T05:58:57;11.50;99.90
3792;DHT22;1911;53.768;11.474;2022-09-17T06:01:23;11.50;99.90
3792;DHT22;1911;53.768;11.474;2022-09-17T06:03:48;11.60;99.90
3792;DHT22;1911;53.768;11.474;2022-09-17T06:06:14;11.60;99.90
3792;DHT22;1911;53.768;11.474;2022-09-17T06:08:40;11.60;99.90
3792;DHT22;1911;53.768;11.474;2022-09-17T06:11:06;11.50;99.90
3792;DHT22;1911;53.768;11.474;2022-09-17T06:13:33;11.60;99.90
3792;DHT22;1911;53.768;11.474;2022-09-17T06:15:59;11.60;99.90
3792;DHT22;1911;53.768;11.474;2022-09-17T06:18:29;11.50;99.90
3792;DHT22;1911;53.768;11.474;2022-09-17T06:20:57;11.60;99.90
3792;DHT22;1911;53.768;11.474;2022-09-17T06:23:23;11.60;99.90
3792;DHT22;1911;53.768;11.474;2022-09-17T06:25:58;11.60;99.90
3792;DHT22;1911;53.768;11.474;2022-09-17T06:28:25;11.60;99.90
3792;DHT22;1911;53.768;11.474;2022-09-17T06:30:51;11.60;99.90
3792;DHT22;1911;53.768;11.474;2022-09-17T06:33:22;11.60;99.90
3792;DHT22;1911;53.768;11.474;2022-09-17T06:35:54;11.60;99.90
3792;DHT22;1911;53.768;11.474;2022-09-17T06:38:20;11.60;99.90
3792;DHT22;1911;53.768;11.474;2022-09-17T06:40:52;11.60;99.90
3792;DHT22;1911;53.768;11.474;2022-09-17T06:43:18;11.60;99.90
3792;DHT22;1911;53.768;11.474;2022-09-17T06:45:51;11.70;99.90
3792;DHT22;1911;53.768;11.474;2022-09-17T06:48:17;11.80;99.90
3792;DHT22;1911;53.768;11.474;2022-09-17T06:50:42;11.80;99.90
3792;DHT22;1911;53.768;11.474;2022-09-17T06:53:08;11.80;98.10
3792;DHT22;1911;53.768;11.474;2022-09-17T06:55:34;11.80;99.90
3792;DHT22;1911;53.768;11.474;2022-09-17T06:57:59;11.80;99.90
3792;DHT22;1911;53.768;11.474;2022-09-17T07:00:25;11.80;99.90
3792;DHT22;1911;53.768;11.474;2022-09-17T07:02:58;12.00;94.30
3792;DHT22;1911;53.768;11.474;2022-09-17T07:05:24;12.00;50.20
3792;DHT22;1911;53.768;11.474;2022-09-17T07:07:50;12.10;49.30
3792;DHT22;1911;53.768;11.474;2022-09-17T07:10:16;12.30;89.40
3792;DHT22;1911;53.768;11.474;2022-09-17T07:12:42;12.30;14.50
3792;DHT22;1911;53.768;11.474;2022-09-17T07:15:08;12.40;1.00
3792;DHT22;1911;53.768;11.474;2022-09-17T07:17:40;12.50;1.00
3792;DHT22;1911;53.768;11.474;2022-09-17T07:20:07;12.60;1.00
3792;DHT22;1911;53.768;11.474;2022-09-17T07:22:34;13.00;1.00
3792;DHT22;1911;53.768;11.474;2022-09-17T07:25:00;13.60;1.00
3792;DHT22;1911;53.768;11.474;2022-09-17T07:27:29;13.90;99.90
3792;DHT22;1911;53.768;11.474;2022-09-17T07:29:55;15.10;99.90
3792;DHT22;1911;53.768;11.474;2022-09-17T07:32:21;17.00;1.00
3792;DHT22;1911;53.768;11.474;2022-09-17T07:34:47;17.70;1.00
3792;DHT22;1911;53.768;11.474;2022-09-17T07:37:14;16.90;1.00
3792;DHT22;1911;53.768;11.474;2022-09-17T07:39:40;16.40;99.90
3792;DHT22;1911;53.768;11.474;2022-09-17T07:42:07;15.80;99.90
3792;DHT22;1911;53.768;11.474;2022-09-17T07:44:32;15.20;1.00
3792;DHT22;1911;53.768;11.474;2022-09-17T07:46:58;15.30;1.00
3792;DHT22;1911;53.768;11.474;2022-09-17T07:49:24;15.00;1.00
3792;DHT22;1911;53.768;11.474;2022-09-17T07:51:50;15.60;1.00
3792;DHT22;1911;53.768;11.474;2022-09-17T07:54:15;16.40;99.90
3792;DHT22;1911;53.768;11.474;2022-09-17T07:56:41;17.00;1.00
3792;DHT22;1911;53.768;11.474;2022-09-17T07:59:08;16.90;1.00
3792;DHT22;1911;53.768;11.474;2022-09-17T08:01:33;17.40;1.00
3792;DHT22;1911;53.768;11.474;2022-09-17T08:04:01;17.50;99.90
3792;DHT22;1911;53.768;11.474;2022-09-17T08:06:27;16.90;1.00
3792;DHT22;1911;53.768;11.474;2022-09-17T08:08:57;17.20;99.90
3792;DHT22;1911;53.768;11.474;2022-09-17T08:11:28;18.40;99.90
3792;DHT22;1911;53.768;11.474;2022-09-17T08:13:54;18.40;99.90
3792;DHT22;1911;53.768;11.474;2022-09-17T08:16:21;19.10;99.90
3792;DHT22;1911;53.768;11.474;2022-09-17T08:18:47;19.20;99.90
3792;DHT22;1911;53.768;11.474;2022-09-17T08:21:16;18.70;99.90
3792;DHT22;1911;53.768;11.474;2022-09-17T08:23:43;17.90;99.90
3792;DHT22;1911;53.768;11.474;2022-09-17T08:26:16;17.10;99.90
3792;DHT22;1911;53.768;11.474;2022-09-17T08:28:46;16.60;99.90
3792;DHT22;1911;53.768;11.474;2022-09-17T08:31:13;17.50;99.90
3792;DHT22;1911;53.768;11.474;2022-09-17T08:33:40;17.90;99.90
3792;DHT22;1911;53.768;11.474;2022-09-17T08:36:07;18.40;99.90
3792;DHT22;1911;53.768;11.474;2022-09-17T08:38:35;18.30;99.90
3792;DHT22;1911;53.768;11.474;2022-09-17T08:41:22;17.90;99.90
3792;DHT22;1911;53.768;11.474;2022-09-17T08:52:17;15.50;99.90
3792;DHT22;1911;53.768;11.474;2022-09-17T09:00:44;16.80;99.90
3792;DHT22;1911;53.768;11.474;2022-09-17T09:06:01;19.10;99.90
3792;DHT22;1911;53.768;11.474;2022-09-17T09:08:43;21.00;99.90
3792;DHT22;1911;53.768;11.474;2022-09-17T09:11:16;20.90;99.90
3792;DHT22;1911;53.768;11.474;2022-09-17T09:13:51;20.60;99.90
3792;DHT22;1911;53.768;11.474;2022-09-17T09:16:20;18.80;99.90
3792;DHT22;1911;53.768;11.474;2022-09-17T09:18:51;18.30;99.90
3792;DHT22;1911;53.768;11.474;2022-09-17T09:21:28;18.20;99.90
3792;DHT22;1911;53.768;11.474;2022-09-17T09:26:46;16.80;99.90
3792;DHT22;1911;53.768;11.474;2022-09-17T09:32:19;17.50;99.90
3792;DHT22;1911;53.768;11.474;2022-09-17T09:34:48;17.20;99.90
3792;DHT22;1911;53.768;11.474;2022-09-17T09:37:19;17.20;99.90
3792;DHT22;1911;53.768;11.474;2022-09-17T09:39:48;17.40;99.90
3792;DHT22;1911;53.768;11.474;2022-09-17T09:44:55;16.90;99.90
3792;DHT22;1911;53.768;11.474;2022-09-17T09:47:52;17.00;99.90
3792;DHT22;1911;53.768;11.474;2022-09-17T09:53:21;16.20;99.90
3792;DHT22;1911;53.768;11.474;2022-09-17T09:56:03;16.10;99.90
3792;DHT22;1911;53.768;11.474;2022-09-17T09:58:37;15.80;99.90
3792;DHT22;1911;53.768;11.474;2022-09-17T10:01:14;15.70;99.90
3792;DHT22;1911;53.768;11.474;2022-09-17T10:03:41;15.70;99.90
3792;DHT22;1911;53.768;11.474;2022-09-17T10:06:09;15.60;99.90
3792;DHT22;1911;53.768;11.474;2022-09-17T10:08:38;15.50;99.90
3792;DHT22;1911;53.768;11.474;2022-09-17T10:13:36;15.90;99.90
3792;DHT22;1911;53.768;11.474;2022-09-17T10:16:24;16.10;99.90
3792;DHT22;1911;53.768;11.474;2022-09-17T10:19:11;16.10;99.90
3792;DHT22;1911;53.768;11.474;2022-09-17T10:21:40;16.20;99.90
3792;DHT22;1911;53.768;11.474;2022-09-17T10:26:46;16.60;99.90
3792;DHT22;1911;53.768;11.474;2022-09-17T10:29:14;16.50;99.90
3792;DHT22;1911;53.768;11.474;2022-09-17T10:31:50;16.20;99.90
3792;DHT22;1911;53.768;11.474;2022-09-17T10:34:36;16.20;99.90
3792;DHT22;1911;53.768;11.474;2022-09-17T10:37:02;16.70;99.90
3792;DHT22;1911;53.768;11.474;2022-09-17T10:39:37;17.10;99.90
3792;DHT22;1911;53.768;11.474;2022-09-17T10:42:19;17.00;99.90
3792;DHT22;1911;53.768;11.474;2022-09-17T10:44:57;17.30;99.90
3792;DHT22;1911;53.768;11.474;2022-09-17T10:47:29;17.20;99.90
3792;DHT22;1911;53.768;11.474;2022-09-17T10:50:01;16.90;99.90
3792;DHT22;1911;53.768;11.474;2022-09-17T10:52:30;17.40;99.90
3792;DHT22;1911;53.768;11.474;2022-09-17T10:55:32;17.50;99.90
3792;DHT22;1911;53.768;11.474;2022-09-17T11:08:54;17.70;93.80
3792;DHT22;1911;53.768;11.474;2022-09-17T11:14:49;17.30;99.90
3792;DHT22;1911;53.768;11.474;2022-09-17T11:30:25;17.70;91.10
3792;DHT22;1911;53.768;11.474;2022-09-17T11:35:26;18.40;89.60
3792;DHT22;1911;53.768;11.474;2022-09-17T11:38:03;18.30;65.20
3792;DHT22;1911;53.768;11.474;2022-09-17T11:40:41;18.30;93.10
3792;DHT22;1911;53.768;11.474;2022-09-17T11:43:16;18.20;84.30
3792;DHT22;1911;53.768;11.474;2022-09-17T11:45:55;18.50;95.00
3792;DHT22;1911;53.768;11.474;2022-09-17T11:48:34;18.70;90.50
3792;DHT22;1911;53.768;11.474;2022-09-17T11:51:27;18.90;93.20
3792;DHT22;1911;53.768;11.474;2022-09-17T11:54:02;18.40;69.50
3792;DHT22;1911;53.768;11.474;2022-09-17T11:56:44;17.90;67.50
3792;DHT22;1911;53.768;11.474;2022-09-17T12:02:04;17.70;62.80
3792;DHT22;1911;53.768;11.474;2022-09-17T12:04:57;17.80;66.40
3792;DHT22;1911;53.768;11.474;2022-09-17T12:07:55;18.00;69.10
3792;DHT22;1911;53.768;11.474;2022-09-17T12:13:05;18.10;77.90
3792;DHT22;1911;53.768;11.474;2022-09-17T12:15:38;18.00;71.00
3792;DHT22;1911;53.768;11.474;2022-09-17T12:18:31;17.60;79.80
3792;DHT22;1911;53.768;11.474;2022-09-17T12:21:04;17.60;84.70
3792;DHT22;1911;53.768;11.474;2022-09-17T12:23:54;17.50;90.10
3792;DHT22;1911;53.768;11.474;2022-09-17T12:31:55;17.20;92.10
3792;DHT22;1911;53.768;11.474;2022-09-17T12:35:12;17.20;91.40
3792;DHT22;1911;53.768;11.474;2022-09-17T12:37:55;17.00;89.80
3792;DHT22;1911;53.768;11.474;2022-09-17T12:40:39;16.70;82.20
3792;DHT22;1911;53.768;11.474;2022-09-17T12:43:37;16.50;76.80
3792;DHT22;1911;53.768;11.474;2022-09-17T13:00:12;17.10;64.50
3792;DHT22;1911;53.768;11.474;2022-09-17T13:02:45;17.20;71.80
3792;DHT22;1911;53.768;11.474;2022-09-17T13:25:00;16.70;58.60
3792;DHT22;1911;53.768;11.474;2022-09-17T13:44:41;15.90;90.20
3792;DHT22;1911;53.768;11.474;2022-09-17T13:47:16;15.40;92.00
3792;DHT22;1911;53.768;11.474;2022-09-17T13:49:49;15.20;99.90
3792;DHT22;1911;53.768;11.474;2022-09-17T13:52:29;14.80;99.90
3792;DHT22;1911;53.768;11.474;2022-09-17T13:54:56;14.20;99.90
3792;DHT22;1911;53.768;11.474;2022-09-17T13:57:22;13.80;1.00
3792;DHT22;1911;53.768;11.474;2022-09-17T13:59:53;13.60;1.00
3792;DHT22;1911;53.768;11.474;2022-09-17T14:02:30;13.40;1.00
3792;DHT22;1911;53.768;11.474;2022-09-17T14:05:21;13.10;1.00
3792;DHT22;1911;53.768;11.474;2022-09-17T14:07:49;12.90;1.00
3792;DHT22;1911;53.768;11.474;2022-09-17T14:23:40;12.50;99.90
3792;DHT22;1911;53.768;11.474;2022-09-17T14:26:13;12.70;98.90
3792;DHT22;1911;53.768;11.474;2022-09-17T14:28:45;12.80;99.90
3792;DHT22;1911;53.768;11.474;2022-09-17T14:31:17;12.90;99.90
3792;DHT22;1911;53.768;11.474;2022-09-17T14:33:45;12.90;99.90
3792;DHT22;1911;53.768;11.474;2022-09-17T14:36:17;13.10;99.90
3792;DHT22;1911;53.768;11.474;2022-09-17T14:39:03;13.20;99.90
3792;DHT22;1911;53.768;11.474;2022-09-17T14:41:35;13.30;99.90
3792;DHT22;1911;53.768;11.474;2022-09-17T14:44:14;13.30;90.20
3792;DHT22;1911;53.768;11.474;2022-09-17T14:46:58;13.40;99.90
3792;DHT22;1911;53.768;11.474;2022-09-17T14:49:27;13.40;99.90
3792;DHT22;1911;53.768;11.474;2022-09-17T14:51:54;13.40;99.90
3792;DHT22;1911;53.768;11.474;2022-09-17T14:54:24;13.50;99.90
3792;DHT22;1911;53.768;11.474;2022-09-17T15:04:58;13.90;99.90
3792;DHT22;1911;53.768;11.474;2022-09-17T15:07:25;13.80;23.20
3792;DHT22;1911;53.768;11.474;2022-09-17T15:09:51;13.90;99.90
3792;DHT22;1911;53.768;11.474;2022-09-17T15:12:23;14.00;99.90
3792;DHT22;1911;53.768;11.474;2022-09-17T15:14:51;13.90;99.90
3792;DHT22;1911;53.768;11.474;2022-09-17T15:17:18;13.80;8.30
3792;DHT22;1911;53.768;11.474;2022-09-17T15:19:47;13.80;1.00
3792;DHT22;1911;53.768;11.474;2022-09-17T15:25:01;13.60;67.10
3792;DHT22;1911;53.768;11.474;2022-09-17T15:27:35;13.50;99.90
3792;DHT22;1911;53.768;11.474;2022-09-17T15:30:21;13.50;99.90
3792;DHT22;1911;53.768;11.474;2022-09-17T15:32:51;13.50;99.90
3792;DHT22;1911;53.768;11.474;2022-09-17T15:35:28;13.20;99.90
3792;DHT22;1911;53.768;11.474;2022-09-17T15:37:57;13.10;99.90
3792;DHT22;1911;53.768;11.474;2022-09-17T15:42:52;13.10;99.90
3792;DHT22;1911;53.768;11.474;2022-09-17T15:45:25;13.20;99.90
3792;DHT22;1911;53.768;11.474;2022-09-17T15:47:56;13.30;99.90
3792;DHT22;1911;53.768;11.474;2022-09-17T15:50:32;13.40;99.90
3792;DHT22;1911;53.768;11.474;2022-09-17T15:55:42;13.30;99.90
3792;DHT22;1911;53.768;11.474;2022-09-17T16:08:44;13.10;99.90
3792;DHT22;1911;53.768;11.474;2022-09-17T16:11:19;13.10;99.90
3792;DHT22;1911;53.768;11.474;2022-09-17T16:13:48;13.20;99.90
3792;DHT22;1911;53.768;11.474;2022-09-17T16:16:16;13.00;99.90
3792;DHT22;1911;53.768;11.474;2022-09-17T16:18:43;12.80;99.90
3792;DHT22;1911;53.768;11.474;2022-09-17T16:21:13;12.80;99.90
3792;DHT22;1911;53.768;11.474;2022-09-17T16:23:39;12.50;99.90
3792;DHT22;1911;53.768;11.474;2022-09-17T16:55:54;12.30;99.90
3792;DHT22;1911;53.768;11.474;2022-09-17T16:58:25;12.30;99.90
3792;DHT22;1911;53.768;11.474;2022-09-17T17:11:03;12.00;99.90
3792;DHT22;1911;53.768;11.474;2022-09-17T17:30:16;11.70;99.90
3792;DHT22;1911;53.768;11.474;2022-09-17T17:32:55;11.70;99.90
3792;DHT22;1911;53.768;11.474;2022-09-17T17:38:57;11.60;99.90
3792;DHT22;1911;53.768;11.474;2022-09-17T17:41:34;11.60;99.90
3792;DHT22;1911;53.768;11.474;2022-09-17T17:47:13;11.60;99.90
3792;DHT22;1911;53.768;11.474;2022-09-17T17:49:48;11.50;99.90
3792;DHT22;1911;53.768;11.474;2022-09-17T17:55:49;11.40;99.90
3792;DHT22;1911;53.768;11.474;2022-09-17T17:58:20;11.30;99.90
3792;DHT22;1911;53.768;11.474;2022-09-17T18:01:29;11.30;99.90
3792;DHT22;1911;53.768;11.474;2022-09-17T18:04:38;11.20;99.90
3792;DHT22;1911;53.768;11.474;2022-09-17T18:07:05;11.20;99.90
3792;DHT22;1911;53.768;11.474;2022-09-17T18:09:51;11.10;99.90
3792;DHT22;1911;53.768;11.474;2022-09-17T18:12:19;11.10;99.90
3792;DHT22;1911;53.768;11.474;2022-09-17T18:14:47;11.10;99.90
3792;DHT22;1911;53.768;11.474;2022-09-17T18:20:45;11.00;99.90
3792;DHT22;1911;53.768;11.474;2022-09-17T18:24:01;11.00;99.90
3792;DHT22;1911;53.768;11.474;2022-09-17T18:26:55;11.00;99.90
3792;DHT22;1911;53.768;11.474;2022-09-17T18:36:36;11.00;99.90
3792;DHT22;1911;53.768;11.474;2022-09-17T18:43:04;11.10;99.90
3792;DHT22;1911;53.768;11.474;2022-09-17T18:46:18;11.10;99.90
3792;DHT22;1911;53.768;11.474;2022-09-17T18:49:11;11.10;99.90
3792;DHT22;1911;53.768;11.474;2022-09-17T18:55:35;11.10;99.90
3792;DHT22;1911;53.768;11.474;2022-09-17T19:01:53;11.10;99.90
3792;DHT22;1911;53.768;11.474;2022-09-17T19:08:28;11.10;99.90
3792;DHT22;1911;53.768;11.474;2022-09-17T19:11:24;11.00;99.90
3792;DHT22;1911;53.768;11.474;2022-09-17T19:14:22;11.00;99.90
3792;DHT22;1911;53.768;11.474;2022-09-17T19:17:28;10.90;99.90
3792;DHT22;1911;53.768;11.474;2022-09-17T19:20:37;11.00;99.90
3792;DHT22;1911;53.768;11.474;2022-09-17T19:30:13;10.90;99.90
3792;DHT22;1911;53.768;11.474;2022-09-17T19:33:20;10.80;99.90
3792;DHT22;1911;53.768;11.474;2022-09-17T19:49:24;10.70;99.90
3792;DHT22;1911;53.768;11.474;2022-09-17T19:58:34;10.80;99.90
3792;DHT22;1911;53.768;11.474;2022-09-17T20:05:02;10.90;99.90
3792;DHT22;1911;53.768;11.474;2022-09-17T20:11:40;10.90;99.90
3792;DHT22;1911;53.768;11.474;2022-09-17T20:14:51;10.90;99.90
3792;DHT22;1911;53.768;11.474;2022-09-17T21:09:05;10.40;99.90
3792;DHT22;1911;53.768;11.474;2022-09-17T21:12:05;10.40;99.90
3792;DHT22;1911;53.768;11.474;2022-09-17T21:14:30;10.40;99.90
3792;DHT22;1911;53.768;11.474;2022-09-17T21:16:56;10.40;99.90
3792;DHT22;1911;53.768;11.474;2022-09-17T21:19:24;10.40;99.90
3792;DHT22;1911;53.768;11.474;2022-09-17T21:21:50;10.40;99.90
3792;DHT22;1911;53.768;11.474;2022-09-17T21:24:21;10.40;99.90
3792;DHT22;1911;53.768;11.474;2022-09-17T21:26:47;10.40;99.90
3792;DHT22;1911;53.768;11.474;2022-09-17T21:29:14;10.40;99.90
3792;DHT22;1911;53.768;11.474;2022-09-17T21:31:39;10.50;99.90
3792;DHT22;1911;53.768;11.474;2022-09-17T21:34:08;10.50;99.90
3792;DHT22;1911;53.768;11.474;2022-09-17T21:36:36;10.50;99.90
3792;DHT22;1911;53.768;11.474;2022-09-17T21:39:05;10.40;99.90
3792;DHT22;1911;53.768;11.474;2022-09-17T21:41:31;10.40;99.90
3792;DHT22;1911;53.768;11.474;2022-09-17T21:43:57;10.40;99.90
3792;DHT22;1911;53.768;11.474;2022-09-17T21:46:28;10.40;99.90
3792;DHT22;1911;53.768;11.474;2022-09-17T21:48:58;10.40;99.90
3792;DHT22;1911;53.768;11.474;2022-09-17T21:51:37;10.40;99.90
3792;DHT22;1911;53.768;11.474;2022-09-17T21:54:08;10.40;99.90
3792;DHT22;1911;53.768;11.474;2022-09-17T21:56:34;10.40;99.90
3792;DHT22;1911;53.768;11.474;2022-09-17T21:59:04;10.40;99.90
3792;DHT22;1911;53.768;11.474;2022-09-17T22:01:36;10.40;99.90
3792;DHT22;1911;53.768;11.474;2022-09-17T22:04:05;10.30;99.90
3792;DHT22;1911;53.768;11.474;2022-09-17T22:06:32;10.30;99.90
3792;DHT22;1911;53.768;11.474;2022-09-17T22:08:59;10.30;99.90
3792;DHT22;1911;53.768;11.474;2022-09-17T22:11:30;10.30;99.90
3792;DHT22;1911;53.768;11.474;2022-09-17T22:14:09;10.40;99.90
3792;DHT22;1911;53.768;11.474;2022-09-17T22:16:41;10.40;99.90
3792;DHT22;1911;53.768;11.474;2022-09-17T22:19:09;10.40;99.90
3792;DHT22;1911;53.768;11.474;2022-09-17T22:21:37;10.40;99.90
3792;DHT22;1911;53.768;11.474;2022-09-17T22:24:04;10.40;99.90
3792;DHT22;1911;53.768;11.474;2022-09-17T22:26:35;10.30;99.90
3792;DHT22;1911;53.768;11.474;2022-09-17T22:29:07;10.30;99.90
3792;DHT22;1911;53.768;11.474;2022-09-17T22:31:34;10.30;99.90
3792;DHT22;1911;53.768;11.474;2022-09-17T22:34:00;10.30;99.90
3792;DHT22;1911;53.768;11.474;2022-09-17T22:36:26;10.30;99.90
3792;DHT22;1911;53.768;11.474;2022-09-17T22:38:54;10.30;99.90
3792;DHT22;1911;53.768;11.474;2022-09-17T22:41:27;10.30;99.90
3792;DHT22;1911;53.768;11.474;2022-09-17T22:43:58;10.40;99.90
3792;DHT22;1911;53.768;11.474;2022-09-17T22:46:36;10.40;99.90
3792;DHT22;1911;53.768;11.474;2022-09-17T22:49:04;10.40;99.90
3792;DHT22;1911;53.768;11.474;2022-09-17T22:51:30;10.40;99.90